createdAt,value
2023-02-05T00:01:23.378Z,93.78
2023-02-05T00:03:49.861Z,94.13
2023-02-05T00:06:16.379Z,93.61
2023-02-05T00:08:42.999Z,93.94
2023-02-05T00:11:09.815Z,94.02
2023-02-05T00:13:37.482Z,94.22
2023-02-05T00:16:24.451Z,94.12
2023-02-05T00:18:51.526Z,93.78
2023-02-05T00:21:19.870Z,93.83
2023-02-05T00:23:46.709Z,94.10
2023-02-05T00:26:14.288Z,93.50
2023-02-05T00:28:42.014Z,93.87
2023-02-05T00:31:17.015Z,93.99
2023-02-05T00:33:44.262Z,94.20
2023-02-05T00:36:12.895Z,94.35
2023-02-05T00:38:40.182Z,94.54
2023-02-05T00:41:06.738Z,94.98
2023-02-05T00:43:33.191Z,94.72
2023-02-05T00:45:59.766Z,95.13
2023-02-05T00:48:26.377Z,94.65
2023-02-05T00:50:52.954Z,94.90
2023-02-05T00:53:20.302Z,95.25
2023-02-05T00:55:46.959Z,95.19
2023-02-05T00:58:13.911Z,95.26
2023-02-05T01:00:40.533Z,95.64
2023-02-05T01:03:07.349Z,95.64
2023-02-05T01:05:35.243Z,95.56
2023-02-05T01:08:02.212Z,95.31
2023-02-05T01:10:29.118Z,95.35
2023-02-05T01:12:55.833Z,95.43
2023-02-05T01:15:22.433Z,95.96
2023-02-05T01:17:49.003Z,96.12
2023-02-05T01:20:15.730Z,95.80
2023-02-05T01:22:42.997Z,96.04
2023-02-05T01:25:10.528Z,96.12
2023-02-05T01:27:37.095Z,95.93
2023-02-05T01:30:05.297Z,95.78
2023-02-05T01:32:32.062Z,95.84
2023-02-05T01:34:58.511Z,96.46
2023-02-05T01:37:25.430Z,96.36
2023-02-05T01:39:52.050Z,96.54
2023-02-05T01:42:22.046Z,96.80
2023-02-05T01:45:29.630Z,96.37
2023-02-05T01:47:58.415Z,96.53
2023-02-05T01:50:32.171Z,97.04
2023-02-05T01:53:03.941Z,96.98
2023-02-05T01:55:31.373Z,96.43
2023-02-05T01:58:00.361Z,96.95
2023-02-05T02:00:27.160Z,96.95
2023-02-05T02:02:53.970Z,96.99
2023-02-05T02:05:20.472Z,97.03
2023-02-05T02:07:47.077Z,96.69
2023-02-05T02:10:15.228Z,96.71
2023-02-05T02:12:44.028Z,96.83
2023-02-05T02:15:15.603Z,96.65
2023-02-05T02:17:44.697Z,96.45
2023-02-05T02:20:18.880Z,96.54
2023-02-05T02:22:54.650Z,96.49
2023-02-05T02:25:37.981Z,96.88
2023-02-05T02:28:16.629Z,96.08
2023-02-05T02:30:59.522Z,96.53
2023-02-05T02:33:41.081Z,96.15
2023-02-05T02:36:22.044Z,96.01
2023-02-05T02:38:53.379Z,96.03
2023-02-05T02:41:27.265Z,96.10
2023-02-05T02:44:11.218Z,96.11
2023-02-05T02:46:43.006Z,96.44
2023-02-05T02:49:17.028Z,96.18
2023-02-05T02:51:45.326Z,96.54
2023-02-05T02:54:16.442Z,96.48
2023-02-05T02:56:45.125Z,96.31
2023-02-05T02:59:18.358Z,96.66
2023-02-05T03:01:54.983Z,97.13
2023-02-05T03:04:29.470Z,97.06
2023-02-05T03:07:03.563Z,97.33
2023-02-05T03:09:38.578Z,97.41
2023-02-05T03:12:05.312Z,97.18
2023-02-05T03:14:31.885Z,97.33
2023-02-05T03:16:59.966Z,97.32
2023-02-05T03:19:28.545Z,97.23
2023-02-05T03:22:00.873Z,97.11
2023-02-05T03:24:27.559Z,97.52
2023-02-05T03:26:54.927Z,97.61
2023-02-05T03:29:30.837Z,97.59
2023-02-05T03:32:36.258Z,97.37
2023-02-05T03:35:10.727Z,97.54
2023-02-05T03:38:07.134Z,97.76
2023-02-05T03:40:39.817Z,97.61
2023-02-05T03:43:36.313Z,97.39
2023-02-05T03:46:22.941Z,97.33
2023-02-05T03:49:14.803Z,97.18
2023-02-05T03:52:03.858Z,96.95
2023-02-05T03:54:45.551Z,96.71
2023-02-05T03:57:28.141Z,96.53
2023-02-05T03:59:58.441Z,96.62
2023-02-05T04:02:26.078Z,96.41
2023-02-05T04:04:54.831Z,96.73
2023-02-05T04:07:21.423Z,96.16
2023-02-05T04:09:48.647Z,96.26
2023-02-05T04:12:15.340Z,96.25
2023-02-05T04:14:43.202Z,96.20
2023-02-05T04:17:12.403Z,95.68
2023-02-05T04:19:41.498Z,95.53
2023-02-05T04:22:08.926Z,95.64
2023-02-05T04:24:38.349Z,95.46
2023-02-05T04:27:05.118Z,95.79
2023-02-05T04:29:32.092Z,95.28
2023-02-05T04:31:58.609Z,95.39
2023-02-05T04:34:25.364Z,94.95
2023-02-05T04:36:52.238Z,95.01
2023-02-05T04:39:20.331Z,94.98
2023-02-05T04:41:46.973Z,94.70
2023-02-05T04:44:14.798Z,94.74
2023-02-05T04:46:41.430Z,95.39
2023-02-05T04:49:07.858Z,95.21
2023-02-05T04:51:34.328Z,94.93
2023-02-05T04:54:00.789Z,95.01
2023-02-05T04:56:27.386Z,94.83
2023-02-05T04:58:54.053Z,94.83
2023-02-05T05:01:22.938Z,94.63
2023-02-05T05:03:50.084Z,94.28
2023-02-05T05:06:18.050Z,94.29
2023-02-05T05:08:44.918Z,94.17
2023-02-05T05:11:15.319Z,94.17
2023-02-05T05:13:42.243Z,93.64
2023-02-05T05:16:10.939Z,93.35
2023-02-05T05:18:38.311Z,93.07
2023-02-05T05:21:05.824Z,92.88
2023-02-05T05:23:33.308Z,92.76
2023-02-05T05:25:59.889Z,93.28
2023-02-05T05:28:27.709Z,93.41
2023-02-05T05:30:54.516Z,93.49
2023-02-05T05:33:21.010Z,93.10
2023-02-05T05:35:47.439Z,93.23
2023-02-05T05:38:13.958Z,93.34
2023-02-05T05:41:16.073Z,93.29
2023-02-05T05:43:48.288Z,93.11
2023-02-05T05:46:23.671Z,93.25
2023-02-05T05:48:56.139Z,92.96
2023-02-05T05:51:24.457Z,92.85
2023-02-05T05:53:51.533Z,92.77
2023-02-05T05:56:18.987Z,92.52
2023-02-05T05:58:46.361Z,92.36
2023-02-05T06:01:13.835Z,92.10
2023-02-05T06:03:40.635Z,92.49
2023-02-05T06:06:08.912Z,92.39
2023-02-05T06:08:35.401Z,92.39
2023-02-05T06:11:02.279Z,92.47
2023-02-05T06:13:28.821Z,92.45
2023-02-05T06:15:55.653Z,92.28
2023-02-05T06:18:23.798Z,92.49
2023-02-05T06:20:50.698Z,91.95
2023-02-05T06:23:17.492Z,91.63
2023-02-05T06:25:44.017Z,91.75
2023-02-05T06:28:10.597Z,91.98
2023-02-05T06:30:37.340Z,91.80
2023-02-05T06:33:04.022Z,92.26
2023-02-05T06:35:31.849Z,92.20
2023-02-05T06:37:58.633Z,91.65
2023-02-05T06:40:25.887Z,91.78
2023-02-05T06:42:53.683Z,91.29
2023-02-05T06:45:20.284Z,91.66
2023-02-05T06:47:47.261Z,91.98
2023-02-05T06:50:14.246Z,92.24
2023-02-05T06:52:40.784Z,91.92
2023-02-05T06:55:07.875Z,91.81
2023-02-05T06:57:34.373Z,91.53
2023-02-05T07:00:00.802Z,91.82
2023-02-05T07:02:27.686Z,91.60
2023-02-05T07:04:54.237Z,91.80
2023-02-05T07:07:20.711Z,91.31
2023-02-05T07:09:47.280Z,91.55
2023-02-05T07:12:13.756Z,91.21
2023-02-05T07:14:42.867Z,90.99
2023-02-05T07:17:10.626Z,90.91
2023-02-05T07:19:37.756Z,90.61
2023-02-05T07:22:05.501Z,90.65
2023-02-05T07:24:32.110Z,90.61
2023-02-05T07:26:58.593Z,90.39
2023-02-05T07:29:25.264Z,90.59
2023-02-05T07:31:52.399Z,90.22
2023-02-05T07:34:20.703Z,90.29
2023-02-05T07:36:51.046Z,90.12
2023-02-05T07:39:17.825Z,90.24
2023-02-05T07:41:44.426Z,90.08
2023-02-05T07:44:20.845Z,89.69
2023-02-05T07:46:47.543Z,89.77
2023-02-05T07:49:14.054Z,89.49
2023-02-05T07:51:41.282Z,89.28
2023-02-05T07:54:09.086Z,89.22
2023-02-05T07:56:35.967Z,89.33
2023-02-05T07:59:03.404Z,89.12
2023-02-05T08:01:30.246Z,89.31
2023-02-05T08:03:56.757Z,89.25
2023-02-05T08:06:23.371Z,88.60
2023-02-05T08:08:50.303Z,88.54
2023-02-05T08:11:18.165Z,88.41
2023-02-05T08:13:45.816Z,88.72
2023-02-05T08:16:15.683Z,88.77
2023-02-05T08:18:43.128Z,88.85
2023-02-05T08:21:09.594Z,88.98
2023-02-05T08:23:36.638Z,88.52
2023-02-05T08:26:03.230Z,87.98
2023-02-05T08:28:30.025Z,88.08
2023-02-05T08:30:57.165Z,87.52
2023-02-05T08:33:23.885Z,87.27
2023-02-05T08:35:50.361Z,87.12
2023-02-05T08:38:16.796Z,86.42
2023-02-05T08:40:43.704Z,85.59
2023-02-05T08:43:10.589Z,85.58
2023-02-05T08:45:37.683Z,85.65
2023-02-05T08:48:04.864Z,85.85
2023-02-05T08:50:31.446Z,86.13
2023-02-05T08:52:57.946Z,86.25
2023-02-05T08:55:24.378Z,85.69
2023-02-05T08:57:51.131Z,85.83
2023-02-05T09:00:18.008Z,85.17
2023-02-05T09:02:44.802Z,84.60
2023-02-05T09:05:11.339Z,84.89
2023-02-05T09:07:39.876Z,84.39
2023-02-05T09:10:09.860Z,84.70
2023-02-05T09:12:37.236Z,84.87
2023-02-05T09:15:05.334Z,84.10
2023-02-05T09:17:32.292Z,83.29
2023-02-05T09:20:01.827Z,83.12
2023-02-05T09:22:28.552Z,83.01
2023-02-05T09:24:55.129Z,82.84
2023-02-05T09:27:21.560Z,83.14
2023-02-05T09:29:48.071Z,82.95
2023-02-05T09:32:14.492Z,82.13
2023-02-05T09:34:41.376Z,82.62
2023-02-05T09:37:07.917Z,82.17
2023-02-05T09:40:17.609Z,82.11
2023-02-05T09:42:43.281Z,82.04
2023-02-05T09:45:28.064Z,81.78
2023-02-05T09:48:24.738Z,81.26
2023-02-05T09:50:52.379Z,80.34
2023-02-05T09:53:21.566Z,80.71
2023-02-05T09:55:49.776Z,80.11
2023-02-05T09:58:25.738Z,79.86
2023-02-05T10:01:05.244Z,79.44
2023-02-05T10:03:44.254Z,79.04
2023-02-05T10:06:13.557Z,78.56
2023-02-05T10:08:53.913Z,78.97
2023-02-05T10:11:38.641Z,79.01
2023-02-05T10:14:32.218Z,79.14
2023-02-05T10:17:17.492Z,79.35
2023-02-05T10:20:13.612Z,78.62
2023-02-05T10:22:57.293Z,78.42
2023-02-05T10:25:38.761Z,77.27
2023-02-05T10:28:11.234Z,77.81
2023-02-05T10:30:51.370Z,76.97
2023-02-05T10:33:27.296Z,76.89
2023-02-05T10:36:01.433Z,77.26
2023-02-05T10:38:33.704Z,77.31
2023-02-05T10:41:21.049Z,77.26
2023-02-05T10:43:59.937Z,76.66
2023-02-05T10:46:33.515Z,75.68
2023-02-05T10:49:09.342Z,75.63
2023-02-05T10:51:41.616Z,76.06
2023-02-05T10:54:29.337Z,75.50
2023-02-05T10:56:58.225Z,74.44
2023-02-05T10:59:33.720Z,73.25
2023-02-05T11:02:09.592Z,72.55
2023-02-05T11:04:44.993Z,73.51
2023-02-05T11:07:19.802Z,73.20
2023-02-05T11:09:46.290Z,72.63
2023-02-05T11:12:32.913Z,71.93
2023-02-05T11:15:02.586Z,70.61
2023-02-05T11:17:36.602Z,70.19
2023-02-05T11:20:25.950Z,69.78
2023-02-05T11:23:07.600Z,70.37
2023-02-05T11:25:35.066Z,69.62
2023-02-05T11:28:04.008Z,69.16
2023-02-05T11:30:49.945Z,68.61
2023-02-05T11:33:23.183Z,68.08
2023-02-05T11:35:54.837Z,68.36
2023-02-05T11:38:31.335Z,66.67
2023-02-05T11:41:02.565Z,66.69
2023-02-05T11:43:48.912Z,67.83
2023-02-05T11:46:20.357Z,68.10
2023-02-05T11:49:05.500Z,68.73
2023-02-05T11:51:35.076Z,67.80
2023-02-05T11:54:14.154Z,67.43
2023-02-05T11:56:40.706Z,67.72
2023-02-05T11:59:21.337Z,67.92
2023-02-05T12:01:48.773Z,68.02
2023-02-05T12:04:19.087Z,68.18
2023-02-05T12:07:12.041Z,68.70
2023-02-05T12:09:38.528Z,68.77
2023-02-05T12:12:35.554Z,68.46
2023-02-05T12:15:40.978Z,68.25
2023-02-05T12:18:38.338Z,68.82
2023-02-05T12:21:41.046Z,68.11
2023-02-05T12:24:28.930Z,67.61
2023-02-05T12:27:17.226Z,67.71
2023-02-05T12:29:43.949Z,67.16
2023-02-05T12:32:19.194Z,66.95
2023-02-05T12:34:53.969Z,67.12
2023-02-05T12:37:36.325Z,66.77
2023-02-05T12:40:21.328Z,66.90
2023-02-05T12:42:57.747Z,67.07
2023-02-05T12:46:16.404Z,66.38
2023-02-05T12:48:54.764Z,66.11
2023-02-05T12:51:43.331Z,66.23
2023-02-05T12:54:29.264Z,66.39
2023-02-05T12:57:01.905Z,66.04
2023-02-05T12:59:48.783Z,66.23
2023-02-05T13:02:32.412Z,66.74
2023-02-05T13:05:14.213Z,66.54
2023-02-05T13:07:53.897Z,67.01
2023-02-05T13:10:28.430Z,67.23
2023-02-05T13:13:05.349Z,67.78
2023-02-05T13:15:40.919Z,67.85
2023-02-05T13:18:19.222Z,68.12
2023-02-05T13:21:09.260Z,69.12
2023-02-05T13:23:56.718Z,69.34
2023-02-05T13:26:51.404Z,69.55
2023-02-05T13:29:20.026Z,70.12
2023-02-05T13:31:54.697Z,70.79
2023-02-05T13:34:23.005Z,71.27
2023-02-05T13:37:01.403Z,71.63
2023-02-05T13:39:55.426Z,71.38
2023-02-05T13:42:40.836Z,71.38
2023-02-05T13:45:40.513Z,72.22
2023-02-05T13:48:29.116Z,72.38
2023-02-05T13:51:27.457Z,72.31
2023-02-05T13:54:18.874Z,72.12
2023-02-05T13:57:10.399Z,72.55
2023-02-05T13:59:46.584Z,72.67
2023-02-05T14:02:33.604Z,73.07
2023-02-05T14:05:02.763Z,72.83
2023-02-05T14:07:33.451Z,72.01
2023-02-05T14:10:02.522Z,71.75
2023-02-05T14:12:32.709Z,71.77
2023-02-05T14:15:17.688Z,72.18
2023-02-05T14:17:44.153Z,72.11
2023-02-05T14:20:26.281Z,71.70
2023-02-05T14:22:55.168Z,71.93
2023-02-05T14:25:41.770Z,71.29
2023-02-05T14:28:17.369Z,72.07
2023-02-05T14:30:48.437Z,72.05
2023-02-05T14:33:35.613Z,72.35
2023-02-05T14:36:17.746Z,72.45
2023-02-05T14:38:55.138Z,72.71
2023-02-05T14:41:50.338Z,72.62
2023-02-05T14:44:39.367Z,73.05
2023-02-05T14:47:21.259Z,73.27
2023-02-05T14:49:49.757Z,73.12
2023-02-05T14:52:19.380Z,73.56
2023-02-05T14:54:51.367Z,73.43
2023-02-05T14:57:23.811Z,73.24
2023-02-05T15:00:14.498Z,72.71
2023-02-05T15:03:00.738Z,72.57
2023-02-05T15:05:34.964Z,72.20
2023-02-05T15:08:11.393Z,72.12
2023-02-05T15:10:47.233Z,72.11
2023-02-05T15:13:19.721Z,72.15
2023-02-05T15:16:11.083Z,71.87
2023-02-05T15:18:59.363Z,71.43
2023-02-05T15:21:34.687Z,71.80
2023-02-05T15:24:06.265Z,71.55
2023-02-05T15:27:01.449Z,71.22
2023-02-05T15:29:34.019Z,71.62
2023-02-05T15:32:24.742Z,71.63
2023-02-05T15:34:55.512Z,71.73
2023-02-05T15:37:43.538Z,71.38
2023-02-05T15:40:24.632Z,71.98
2023-02-05T15:42:57.908Z,72.13
2023-02-05T15:45:39.742Z,72.21
2023-02-05T15:48:23.901Z,73.12
2023-02-05T15:50:58.506Z,73.01
2023-02-05T15:53:34.112Z,72.83
2023-02-05T15:56:16.472Z,73.08
2023-02-05T15:58:49.766Z,73.80
2023-02-05T16:01:24.973Z,74.64
2023-02-05T16:03:51.443Z,74.35
2023-02-05T16:06:24.606Z,75.33
2023-02-05T16:08:52.533Z,75.50
2023-02-05T16:11:33.589Z,75.87
2023-02-05T16:14:14.508Z,76.73
2023-02-05T16:16:52.107Z,77.02
2023-02-05T16:19:24.902Z,77.17
2023-02-05T16:21:59.278Z,77.68
2023-02-05T16:24:34.827Z,78.08
2023-02-05T16:27:09.136Z,78.57
2023-02-05T16:29:47.936Z,78.96
2023-02-05T16:32:23.802Z,79.05
2023-02-05T16:34:50.752Z,79.68
2023-02-05T16:37:19.356Z,79.77
2023-02-05T16:39:53.478Z,79.93
2023-02-05T16:42:31.847Z,80.44
2023-02-05T16:45:10.574Z,80.39
2023-02-05T16:47:37.618Z,81.02
2023-02-05T16:50:37.470Z,81.31
2023-02-05T16:53:14.983Z,80.89
2023-02-05T16:55:46.125Z,80.86
2023-02-05T16:58:19.277Z,81.51
2023-02-05T17:00:59.442Z,81.36
2023-02-05T17:03:31.228Z,81.17
2023-02-05T17:06:01.530Z,81.50
2023-02-05T17:08:36.556Z,81.34
2023-02-05T17:11:06.369Z,81.67
2023-02-05T17:13:44.640Z,82.26
2023-02-05T17:16:29.817Z,82.23
2023-02-05T17:19:06.386Z,82.39
2023-02-05T17:21:35.163Z,82.47
2023-02-05T17:24:05.014Z,82.63
2023-02-05T17:26:35.073Z,82.38
2023-02-05T17:29:04.504Z,82.77
2023-02-05T17:31:37.798Z,82.53
2023-02-05T17:34:05.548Z,82.56
2023-02-05T17:36:32.027Z,82.99
2023-02-05T17:38:58.547Z,82.59
2023-02-05T17:41:47.050Z,82.77
2023-02-05T17:44:15.814Z,82.47
2023-02-05T17:46:43.695Z,82.13
2023-02-05T17:49:10.744Z,82.41
2023-02-05T17:51:42.653Z,81.98
2023-02-05T17:54:23.535Z,82.27
2023-02-05T17:56:50.932Z,82.42
2023-02-05T17:59:20.334Z,82.46
2023-02-05T18:01:48.247Z,81.96
2023-02-05T18:04:15.397Z,81.86
2023-02-05T18:06:42.921Z,81.95
2023-02-05T18:09:10.027Z,81.81
2023-02-05T18:11:36.779Z,82.21
2023-02-05T18:14:03.403Z,82.58
2023-02-05T18:16:30.258Z,82.10
2023-02-05T18:18:57.464Z,81.94
2023-02-05T18:21:24.646Z,81.84
2023-02-05T18:23:54.858Z,82.03
2023-02-05T18:26:21.868Z,82.01
2023-02-05T18:28:48.431Z,81.89
2023-02-05T18:31:15.482Z,81.35
2023-02-05T18:33:42.285Z,81.65
2023-02-05T18:36:13.993Z,81.64
2023-02-05T18:38:42.957Z,81.92
2023-02-05T18:41:14.837Z,82.14
2023-02-05T18:43:41.901Z,81.94
2023-02-05T18:46:16.642Z,81.87
2023-02-05T18:48:45.754Z,81.28
2023-02-05T18:51:14.387Z,81.54
2023-02-05T18:53:42.982Z,81.02
2023-02-05T18:56:14.192Z,80.77
2023-02-05T18:58:41.845Z,80.34
2023-02-05T19:01:16.281Z,81.09
2023-02-05T19:03:44.028Z,80.69
2023-02-05T19:06:14.082Z,80.75
2023-02-05T19:08:41.311Z,81.44
2023-02-05T19:11:10.635Z,81.02
2023-02-05T19:13:37.753Z,81.57
2023-02-05T19:16:06.756Z,80.96
2023-02-05T19:18:33.378Z,81.19
2023-02-05T19:21:05.256Z,81.28
2023-02-05T19:23:32.213Z,81.04
2023-02-05T19:26:02.597Z,80.92
2023-02-05T19:28:31.311Z,80.78
2023-02-05T19:31:03.593Z,80.90
2023-02-05T19:33:31.633Z,80.06
2023-02-05T19:35:59.557Z,79.96
2023-02-05T19:38:26.374Z,80.12
2023-02-05T19:40:53.062Z,80.62
2023-02-05T19:43:19.931Z,81.10
2023-02-05T19:45:47.755Z,80.21
2023-02-05T19:48:15.676Z,80.08
2023-02-05T19:50:43.752Z,79.82
2023-02-05T19:53:10.659Z,80.55
2023-02-05T19:55:37.313Z,79.75
2023-02-05T19:58:04.123Z,80.29
2023-02-05T20:00:30.778Z,80.66
2023-02-05T20:02:57.709Z,81.12
2023-02-05T20:05:24.528Z,81.16
2023-02-05T20:07:52.057Z,81.11
2023-02-05T20:10:19.146Z,81.91
2023-02-05T20:12:48.721Z,81.68
2023-02-05T20:15:16.214Z,81.88
2023-02-05T20:17:43.801Z,80.71
2023-02-05T20:20:22.255Z,81.39
2023-02-05T20:22:54.793Z,81.02
2023-02-05T20:25:21.666Z,80.93
2023-02-05T20:27:48.348Z,80.80
2023-02-05T20:30:33.426Z,81.01
2023-02-05T20:33:00.014Z,81.53
2023-02-05T20:35:26.452Z,82.00
2023-02-05T20:37:53.100Z,82.43
2023-02-05T20:40:19.688Z,82.01
2023-02-05T20:42:46.884Z,81.75
2023-02-05T20:45:13.521Z,81.74
2023-02-05T20:47:40.961Z,81.57
2023-02-05T20:50:09.286Z,81.44
2023-02-05T20:52:36.921Z,82.17
2023-02-05T20:55:03.932Z,82.06
2023-02-05T20:57:30.389Z,81.72
2023-02-05T20:59:56.882Z,81.94
2023-02-05T21:02:23.686Z,81.47
2023-02-05T21:04:52.481Z,81.40
2023-02-05T21:07:19.201Z,81.69
2023-02-05T21:09:45.635Z,81.66
2023-02-05T21:12:12.257Z,81.33
2023-02-05T21:14:38.935Z,81.47
2023-02-05T21:17:09.228Z,81.56
2023-02-05T21:19:35.686Z,81.37
2023-02-05T21:22:02.468Z,81.74
2023-02-05T21:24:29.187Z,81.28
2023-02-05T21:26:55.964Z,81.87
2023-02-05T21:29:22.501Z,82.37
2023-02-05T21:31:52.832Z,81.81
2023-02-05T21:34:26.140Z,81.48
2023-02-05T21:36:54.916Z,82.01
2023-02-05T21:39:21.924Z,82.16
2023-02-05T21:41:50.507Z,81.62
2023-02-05T21:44:17.182Z,81.82
2023-02-05T21:46:43.694Z,81.72
2023-02-05T21:49:11.531Z,82.12
2023-02-05T21:51:39.902Z,82.12
2023-02-05T21:54:06.551Z,82.39
2023-02-05T21:56:39.897Z,82.74
2023-02-05T21:59:07.516Z,82.52
2023-02-05T22:01:36.508Z,83.21
2023-02-05T22:04:07.665Z,83.48
2023-02-05T22:06:35.566Z,84.02
2023-02-05T22:09:04.812Z,83.99
2023-02-05T22:11:31.554Z,84.10
2023-02-05T22:13:58.463Z,84.22
2023-02-05T22:16:30.824Z,83.89
2023-02-05T22:18:59.292Z,83.75
2023-02-05T22:21:28.221Z,84.05
2023-02-05T22:23:56.650Z,84.46
2023-02-05T22:26:36.803Z,84.14
2023-02-05T22:29:06.594Z,85.01
2023-02-05T22:31:34.167Z,85.37
2023-02-05T22:34:00.942Z,85.55
2023-02-05T22:36:30.681Z,86.24
2023-02-05T22:38:57.866Z,86.70
2023-02-05T22:41:30.639Z,86.78
2023-02-05T22:43:58.686Z,86.87
2023-02-05T22:46:30.004Z,86.55
2023-02-05T22:48:58.485Z,86.76
2023-02-05T22:51:34.178Z,86.22
2023-02-05T22:54:01.833Z,86.31
2023-02-05T22:56:29.237Z,86.56
2023-02-05T22:58:56.883Z,86.94
2023-02-05T23:01:28.895Z,86.28
2023-02-05T23:03:57.532Z,86.28
2023-02-05T23:06:27.026Z,86.01
2023-02-05T23:08:57.339Z,86.53
2023-02-05T23:11:25.076Z,86.54
2023-02-05T23:13:51.966Z,86.13
2023-02-05T23:16:31.157Z,86.49
2023-02-05T23:19:00.710Z,86.58
2023-02-05T23:21:29.214Z,87.18
2023-02-05T23:23:56.510Z,86.91
2023-02-05T23:26:26.586Z,86.41
2023-02-05T23:28:55.221Z,87.04
2023-02-05T23:31:22.941Z,87.12
2023-02-05T23:33:49.753Z,86.78
2023-02-05T23:36:16.508Z,87.22
2023-02-05T23:38:43.034Z,87.18
2023-02-05T23:41:09.834Z,87.51
2023-02-05T23:43:37.218Z,87.59
2023-02-05T23:46:05.273Z,87.71
2023-02-05T23:48:31.855Z,88.25
2023-02-05T23:50:58.401Z,88.91
2023-02-05T23:53:25.079Z,89.16
2023-02-05T23:55:52.972Z,90.22
2023-02-05T23:58:20.926Z,90.03
